sensor_id;sensor_type;location;lat;lon;timestamp;pressure;altitude;pressure_sealevel;temperature;humidity
1832;BME280;1680;48.106;11.708;2024-01-15T00:01:59;94229.97;;;-0.45;100.00
1832;BME280;1680;48.106;11.708;2024-01-15T00:04:28;94226.88;;;-0.34;100.00
1832;BME280;1680;48.106;11.708;2024-01-15T00:06:55;94223.81;;;-0.23;100.00
1832;BME280;1680;48.106;11.708;2024-01-15T00:09:22;94218.72;;;-0.10;100.00
1832;BME280;1680;48.106;11.708;2024-01-15T00:11:49;94214.59;;;-0.05;100.00
1832;BME280;1680;48.106;11.708;2024-01-15T00:14:16;94219.78;;;0.01;100.00
1832;BME280;1680;48.106;11.708;2024-01-15T00:16:45;94228.16;;;0.16;100.00
1832;BME280;1680;48.106;11.708;2024-01-15T00:19:12;94222.09;;;0.30;100.00
1832;BME280;1680;48.106;11.708;2024-01-15T00:21:41;94221.47;;;0.28;100.00
1832;BME280;1680;48.106;11.708;2024-01-15T00:24:08;94219.38;;;0.45;100.00
1832;BME280;1680;48.106;11.708;2024-01-15T00:26:35;94213.44;;;0.51;100.00
1832;BME280;1680;48.106;11.708;2024-01-15T00:29:02;94205.69;;;0.44;100.00
1832;BME280;1680;48.106;11.708;2024-01-15T00:31:30;94218.41;;;0.52;100.00
1832;BME280;1680;48.106;11.708;2024-01-15T00:33:57;94224.16;;;0.61;100.00
1832;BME280;1680;48.106;11.708;2024-01-15T00:36:24;94220.03;;;0.66;100.00
1832;BME280;1680;48.106;11.708;2024-01-15T00:38:53;94224.00;;;0.69;100.00
1832;BME280;1680;48.106;11.708;2024-01-15T00:41:20;94237.06;;;0.61;100.00
1832;BME280;1680;48.106;11.708;2024-01-15T00:43:48;94232.72;;;0.61;100.00
1832;BME280;1680;48.106;11.708;2024-01-15T00:46:15;94245.84;;;0.79;100.00
1832;BME280;1680;48.106;11.708;2024-01-15T00:48:42;94248.22;;;0.81;100.00
1832;BME280;1680;48.106;11.708;2024-01-15T00:51:10;94241.47;;;0.73;100.00
1832;BME280;1680;48.106;11.708;2024-01-15T00:53:37;94249.44;;;0.91;100.00
1832;BME280;1680;48.106;11.708;2024-01-15T00:56:05;94271.69;;;0.92;100.00
1832;BME280;1680;48.106;11.708;2024-01-15T00:58:32;94254.41;;;0.99;100.00
1832;BME280;1680;48.106;11.708;2024-01-15T01:01:00;94250.25;;;0.98;100.00
1832;BME280;1680;48.106;11.708;2024-01-15T01:03:27;94264.34;;;0.95;100.00
1832;BME280;1680;48.106;11.708;2024-01-15T01:05:54;94253.63;;;0.92;100.00
1832;BME280;1680;48.106;11.708;2024-01-15T01:08:21;94253.03;;;0.90;100.00
1832;BME280;1680;48.106;11.708;2024-01-15T01:10:48;94264.53;;;0.88;100.00
1832;BME280;1680;48.106;11.708;2024-01-15T01:13:17;94239.13;;;0.85;100.00
1832;BME280;1680;48.106;11.708;2024-01-15T01:15:44;94258.56;;;0.87;100.00
1832;BME280;1680;48.106;11.708;2024-01-15T01:18:11;94256.56;;;0.83;100.00
1832;BME280;1680;48.106;11.708;2024-01-15T01:20:38;94271.63;;;0.66;100.00
1832;BME280;1680;48.106;11.708;2024-01-15T01:23:05;94264.63;;;0.54;100.00
1832;BME280;1680;48.106;11.708;2024-01-15T01:25:32;94246.88;;;0.31;100.00
1832;BME280;1680;48.106;11.708;2024-01-15T01:27:59;94266.31;;;0.34;100.00
1832;BME280;1680;48.106;11.708;2024-01-15T01:30:28;94268.66;;;0.22;100.00
1832;BME280;1680;48.106;11.708;2024-01-15T01:32:55;94267.56;;;0.10;100.00
1832;BME280;1680;48.106;11.708;2024-01-15T01:35:22;94270.94;;;0.04;100.00
1832;BME280;1680;48.106;11.708;2024-01-15T01:37:49;94267.69;;;-0.04;100.00
1832;BME280;1680;48.106;11.708;2024-01-15T01:40:16;94258.84;;;-0.22;100.00
1832;BME280;1680;48.106;11.708;2024-01-15T01:42:43;94271.09;;;-0.31;100.00
1832;BME280;1680;48.106;11.708;2024-01-15T01:45:10;94282.97;;;-0.30;100.00
1832;BME280;1680;48.106;11.708;2024-01-15T01:47:39;94277.03;;;-0.30;100.00
1832;BME280;1680;48.106;11.708;2024-01-15T01:50:07;94279.41;;;-0.29;100.00
1832;BME280;1680;48.106;11.708;2024-01-15T01:52:35;94282.38;;;-0.32;100.00
1832;BME280;1680;48.106;11.708;2024-01-15T01:55:03;94280.94;;;-0.34;100.00
1832;BME280;1680;48.106;11.708;2024-01-15T01:57:32;94274.59;;;-0.38;100.00
1832;BME280;1680;48.106;11.708;2024-01-15T02:00:02;94282.13;;;-0.37;100.00
1832;BME280;1680;48.106;11.708;2024-01-15T02:02:30;94275.75;;;-0.41;100.00
1832;BME280;1680;48.106;11.708;2024-01-15T02:04:59;94280.91;;;-0.41;100.00
1832;BME280;1680;48.106;11.708;2024-01-15T02:07:26;94276.94;;;-0.43;100.00
1832;BME280;1680;48.106;11.708;2024-01-15T02:09:53;94272.41;;;-0.41;100.00
1832;BME280;1680;48.106;11.708;2024-01-15T02:12:20;94279.25;;;-0.48;100.00
1832;BME280;1680;48.106;11.708;2024-01-15T02:14:47;94276.69;;;-0.48;100.00
1832;BME280;1680;48.106;11.708;2024-01-15T02:17:14;94282.81;;;-0.49;100.00
1832;BME280;1680;48.106;11.708;2024-01-15T02:19:42;94256.94;;;-0.69;100.00
1832;BME280;1680;48.106;11.708;2024-01-15T02:22:10;94285.59;;;-0.51;100.00
1832;BME280;1680;48.106;11.708;2024-01-15T02:24:39;94287.97;;;-0.49;100.00
1832;BME280;1680;48.106;11.708;2024-01-15T02:27:06;94268.13;;;-0.55;100.00
1832;BME280;1680;48.106;11.708;2024-01-15T02:29:33;94291.56;;;-0.44;100.00
1832;BME280;1680;48.106;11.708;2024-01-15T02:32:04;94223.56;;;-0.83;100.00
1832;BME280;1680;48.106;11.708;2024-01-15T02:34:31;94300.09;;;-0.43;100.00
1832;BME280;1680;48.106;11.708;2024-01-15T02:36:58;94308.06;;;-0.38;100.00
1832;BME280;1680;48.106;11.708;2024-01-15T02:39:26;94309.53;;;-0.29;100.00
1832;BME280;1680;48.106;11.708;2024-01-15T02:41:55;94314.66;;;-0.29;100.00
1832;BME280;1680;48.106;11.708;2024-01-15T02:44:23;94316.25;;;-0.28;100.00
1832;BME280;1680;48.106;11.708;2024-01-15T02:46:50;94324.16;;;-0.30;100.00
1832;BME280;1680;48.106;11.708;2024-01-15T02:49:17;94314.09;;;-0.25;100.00
1832;BME280;1680;48.106;11.708;2024-01-15T02:51:44;94295.25;;;-0.32;100.00
1832;BME280;1680;48.106;11.708;2024-01-15T02:54:12;94309.06;;;-0.39;100.00
1832;BME280;1680;48.106;11.708;2024-01-15T02:56:39;94335.84;;;-0.34;100.00
1832;BME280;1680;48.106;11.708;2024-01-15T02:59:07;94345.16;;;-0.33;100.00
1832;BME280;1680;48.106;11.708;2024-01-15T03:01:35;94349.06;;;-0.37;100.00
1832;BME280;1680;48.106;11.708;2024-01-15T03:04:02;94332.97;;;-0.45;100.00
1832;BME280;1680;48.106;11.708;2024-01-15T03:06:29;94326.00;;;-0.45;100.00
1832;BME280;1680;48.106;11.708;2024-01-15T03:08:56;94315.00;;;-0.39;100.00
1832;BME280;1680;48.106;11.708;2024-01-15T03:11:23;94312.66;;;-0.34;100.00
1832;BME280;1680;48.106;11.708;2024-01-15T03:13:50;94315.81;;;-0.38;100.00
1832;BME280;1680;48.106;11.708;2024-01-15T03:16:18;94309.16;;;-0.47;100.00
1832;BME280;1680;48.106;11.708;2024-01-15T03:18:46;94307.47;;;-0.40;100.00
1832;BME280;1680;48.106;11.708;2024-01-15T03:21:13;94308.66;;;-0.36;100.00
1832;BME280;1680;48.106;11.708;2024-01-15T03:23:40;94305.16;;;-0.29;100.00
1832;BME280;1680;48.106;11.708;2024-01-15T03:26:07;94297.16;;;-0.40;100.00
1832;BME280;1680;48.106;11.708;2024-01-15T03:28:34;94308.13;;;-0.32;100.00
1832;BME280;1680;48.106;11.708;2024-01-15T03:31:01;94308.03;;;-0.17;100.00
1832;BME280;1680;48.106;11.708;2024-01-15T03:33:29;94304.84;;;-0.19;100.00
1832;BME280;1680;48.106;11.708;2024-01-15T03:35:57;94306.22;;;-0.23;100.00
1832;BME280;1680;48.106;11.708;2024-01-15T03:38:24;94297.38;;;-0.35;100.00
1832;BME280;1680;48.106;11.708;2024-01-15T03:40:51;94300.81;;;-0.28;100.00
1832;BME280;1680;48.106;11.708;2024-01-15T03:43:18;94311.44;;;-0.38;100.00
1832;BME280;1680;48.106;11.708;2024-01-15T03:45:45;94313.44;;;-0.33;100.00
1832;BME280;1680;48.106;11.708;2024-01-15T03:48:12;94318.22;;;-0.30;100.00
1832;BME280;1680;48.106;11.708;2024-01-15T03:50:40;94314.56;;;-0.42;100.00
1832;BME280;1680;48.106;11.708;2024-01-15T03:53:08;94299.50;;;-0.45;100.00
1832;BME280;1680;48.106;11.708;2024-01-15T03:55:35;94315.41;;;-0.35;100.00
1832;BME280;1680;48.106;11.708;2024-01-15T03:58:02;94315.97;;;-0.40;100.00
1832;BME280;1680;48.106;11.708;2024-01-15T04:00:29;94300.16;;;-0.37;100.00
1832;BME280;1680;48.106;11.708;2024-01-15T04:02:56;94257.19;;;-0.64;100.00
1832;BME280;1680;48.106;11.708;2024-01-15T04:05:23;94299.28;;;-0.44;100.00
1832;BME280;1680;48.106;11.708;2024-01-15T04:07:51;94305.41;;;-0.45;100.00
1832;BME280;1680;48.106;11.708;2024-01-15T04:10:18;94291.09;;;-0.54;100.00
1832;BME280;1680;48.106;11.708;2024-01-15T04:12:46;94261.88;;;-0.67;100.00
1832;BME280;1680;48.106;11.708;2024-01-15T04:15:13;94290.59;;;-0.43;100.00
1832;BME280;1680;48.106;11.708;2024-01-15T04:17:40;94268.97;;;-0.48;100.00
1832;BME280;1680;48.106;11.708;2024-01-15T04:20:08;94227.94;;;-0.77;100.00
1832;BME280;1680;48.106;11.708;2024-01-15T04:22:35;94293.69;;;-0.26;100.00
1832;BME280;1680;48.106;11.708;2024-01-15T04:25:05;94290.50;;;-0.28;100.00
1832;BME280;1680;48.106;11.708;2024-01-15T04:27:32;94294.81;;;-0.35;100.00
1832;BME280;1680;48.106;11.708;2024-01-15T04:30:00;94294.69;;;-0.27;100.00
1832;BME280;1680;48.106;11.708;2024-01-15T04:32:27;94285.28;;;-0.41;100.00
1832;BME280;1680;48.106;11.708;2024-01-15T04:34:54;94293.34;;;-0.44;100.00
1832;BME280;1680;48.106;11.708;2024-01-15T04:37:22;94272.72;;;-0.51;100.00
1832;BME280;1680;48.106;11.708;2024-01-15T04:39:49;94290.72;;;-0.51;100.00
1832;BME280;1680;48.106;11.708;2024-01-15T04:42:19;94289.28;;;-0.32;100.00
1832;BME280;1680;48.106;11.708;2024-01-15T04:44:46;94278.63;;;-0.29;100.00
1832;BME280;1680;48.106;11.708;2024-01-15T04:47:13;94282.53;;;-0.33;100.00
1832;BME280;1680;48.106;11.708;2024-01-15T04:49:41;94295.41;;;-0.33;100.00
1832;BME280;1680;48.106;11.708;2024-01-15T04:52:08;94277.41;;;-0.33;100.00
1832;BME280;1680;48.106;11.708;2024-01-15T04:54:35;94288.31;;;-0.31;100.00
1832;BME280;1680;48.106;11.708;2024-01-15T04:57:03;94292.47;;;-0.30;100.00
1832;BME280;1680;48.106;11.708;2024-01-15T04:59:31;94291.38;;;-0.15;100.00
1832;BME280;1680;48.106;11.708;2024-01-15T05:01:59;94288.00;;;-0.43;100.00
1832;BME280;1680;48.106;11.708;2024-01-15T05:04:26;94301.69;;;-0.42;100.00
1832;BME280;1680;48.106;11.708;2024-01-15T05:06:53;94277.66;;;-0.49;100.00
1832;BME280;1680;48.106;11.708;2024-01-15T05:09:20;94280.59;;;-0.31;100.00
1832;BME280;1680;48.106;11.708;2024-01-15T05:11:47;94290.41;;;-0.41;100.00
1832;BME280;1680;48.106;11.708;2024-01-15T05:14:14;94290.41;;;-0.41;100.00
1832;BME280;1680;48.106;11.708;2024-01-15T05:16:47;94300.88;;;-0.22;100.00
1832;BME280;1680;48.106;11.708;2024-01-15T05:19:15;94282.50;;;-0.40;100.00
1832;BME280;1680;48.106;11.708;2024-01-15T05:21:45;94272.25;;;-0.33;100.00
1832;BME280;1680;48.106;11.708;2024-01-15T05:24:12;94271.16;;;-0.45;100.00
1832;BME280;1680;48.106;11.708;2024-01-15T05:26:39;94262.47;;;-0.44;100.00
1832;BME280;1680;48.106;11.708;2024-01-15T05:29:06;94288.56;;;-0.26;100.00
1832;BME280;1680;48.106;11.708;2024-01-15T05:31:33;94284.09;;;-0.11;100.00
1832;BME280;1680;48.106;11.708;2024-01-15T05:34:03;94282.25;;;-0.17;100.00
1832;BME280;1680;48.106;11.708;2024-01-15T05:36:31;94295.28;;;-0.25;100.00
1832;BME280;1680;48.106;11.708;2024-01-15T05:38:58;94296.50;;;-0.21;100.00
1832;BME280;1680;48.106;11.708;2024-01-15T05:41:26;94296.38;;;-0.13;100.00
1832;BME280;1680;48.106;11.708;2024-01-15T05:43:53;94292.94;;;-0.20;100.00
1832;BME280;1680;48.106;11.708;2024-01-15T05:46:20;94279.06;;;-0.19;100.00
1832;BME280;1680;48.106;11.708;2024-01-15T05:48:47;94281.44;;;-0.24;100.00
1832;BME280;1680;48.106;11.708;2024-01-15T05:51:15;94283.41;;;-0.26;100.00
1832;BME280;1680;48.106;11.708;2024-01-15T05:53:42;94290.88;;;-0.31;100.00
1832;BME280;1680;48.106;11.708;2024-01-15T05:56:10;94288.34;;;-0.25;100.00
1832;BME280;1680;48.106;11.708;2024-01-15T05:58:37;94292.09;;;-0.27;100.00
1832;BME280;1680;48.106;11.708;2024-01-15T06:01:04;94290.63;;;-0.36;100.00
1832;BME280;1680;48.106;11.708;2024-01-15T06:03:31;94227.63;;;-0.68;100.00
1832;BME280;1680;48.106;11.708;2024-01-15T06:05:58;94287.75;;;-0.27;100.00
1832;BME280;1680;48.106;11.708;2024-01-15T06:08:27;94263.91;;;-0.35;100.00
1832;BME280;1680;48.106;11.708;2024-01-15T06:10:56;94279.00;;;-0.32;100.00
1832;BME280;1680;48.106;11.708;2024-01-15T06:13:23;94273.84;;;-0.32;100.00
1832;BME280;1680;48.106;11.708;2024-01-15T06:15:50;94282.19;;;-0.30;100.00
1832;BME280;1680;48.106;11.708;2024-01-15T06:18:17;94286.59;;;-0.24;100.00
1832;BME280;1680;48.106;11.708;2024-01-15T06:20:44;94285.72;;;-0.31;100.00
1832;BME280;1680;48.106;11.708;2024-01-15T06:23:11;94285.22;;;-0.20;100.00
1832;BME280;1680;48.106;11.708;2024-01-15T06:25:39;94180.38;;;-0.88;100.00
1832;BME280;1680;48.106;11.708;2024-01-15T06:28:06;94293.69;;;-0.26;100.00
1832;BME280;1680;48.106;11.708;2024-01-15T06:30:35;94288.19;;;-0.23;100.00
1832;BME280;1680;48.106;11.708;2024-01-15T06:33:02;94292.88;;;-0.27;100.00
1832;BME280;1680;48.106;11.708;2024-01-15T06:35:29;94285.97;;;-0.26;100.00
1832;BME280;1680;48.106;11.708;2024-01-15T06:37:56;94291.16;;;-0.20;100.00
1832;BME280;1680;48.106;11.708;2024-01-15T06:40:23;94283.53;;;-0.34;100.00
1832;BME280;1680;48.106;11.708;2024-01-15T06:42:51;94287.69;;;-0.33;100.00
1832;BME280;1680;48.106;11.708;2024-01-15T06:45:19;94288.91;;;-0.29;100.00
1832;BME280;1680;48.106;11.708;2024-01-15T06:47:46;94281.44;;;-0.24;100.00
1832;BME280;1680;48.106;11.708;2024-01-15T06:50:13;94281.91;;;1.52;100.00
1832;BME280;1680;48.106;11.708;2024-01-15T06:52:40;94298.69;;;0.96;100.00
1832;BME280;1680;48.106;11.708;2024-01-15T06:55:07;94279.72;;;1.62;100.00
1832;BME280;1680;48.106;11.708;2024-01-15T06:57:34;94289.66;;;2.73;100.00
1832;BME280;1680;48.106;11.708;2024-01-15T07:00:03;94298.63;;;2.77;100.00
1832;BME280;1680;48.106;11.708;2024-01-15T07:02:33;94297.63;;;1.70;98.78
1832;BME280;1680;48.106;11.708;2024-01-15T07:05:00;94291.78;;;1.09;100.00
1832;BME280;1680;48.106;11.708;2024-01-15T07:07:30;94298.72;;;0.49;100.00
1832;BME280;1680;48.106;11.708;2024-01-15T07:09:57;94298.44;;;0.31;100.00
1832;BME280;1680;48.106;11.708;2024-01-15T07:12:24;94301.34;;;0.22;100.00
1832;BME280;1680;48.106;11.708;2024-01-15T07:14:51;94306.06;;;0.12;100.00
1832;BME280;1680;48.106;11.708;2024-01-15T07:17:20;94300.69;;;0.13;100.00
1832;BME280;1680;48.106;11.708;2024-01-15T07:19:47;94288.16;;;0.04;100.00
1832;BME280;1680;48.106;11.708;2024-01-15T07:22:14;94275.34;;;-0.17;100.00
1832;BME280;1680;48.106;11.708;2024-01-15T07:24:42;94287.25;;;0.18;100.00
1832;BME280;1680;48.106;11.708;2024-01-15T07:27:12;94280.34;;;-0.09;100.00
1832;BME280;1680;48.106;11.708;2024-01-15T07:29:39;94271.53;;;0.06;100.00
1832;BME280;1680;48.106;11.708;2024-01-15T07:32:08;94292.72;;;0.08;100.00
1832;BME280;1680;48.106;11.708;2024-01-15T07:34:37;94287.78;;;0.07;100.00
1832;BME280;1680;48.106;11.708;2024-01-15T07:37:04;94295.09;;;0.03;100.00
1832;BME280;1680;48.106;11.708;2024-01-15T07:39:31;94284.78;;;0.03;100.00
1832;BME280;1680;48.106;11.708;2024-01-15T07:42:00;94268.72;;;0.01;100.00
1832;BME280;1680;48.106;11.708;2024-01-15T07:44:27;94277.34;;;-0.12;100.00
1832;BME280;1680;48.106;11.708;2024-01-15T07:46:54;94265.38;;;-0.26;100.00
1832;BME280;1680;48.106;11.708;2024-01-15T07:49:21;94290.56;;;0.05;100.00
1832;BME280;1680;48.106;11.708;2024-01-15T07:51:50;94280.00;;;0.00;100.00
1832;BME280;1680;48.106;11.708;2024-01-15T07:54:17;94283.28;;;0.15;100.00
1832;BME280;1680;48.106;11.708;2024-01-15T07:56:54;94277.03;;;-0.03;100.00
1832;BME280;1680;48.106;11.708;2024-01-15T07:59:21;94290.94;;;0.02;100.00
1832;BME280;1680;48.106;11.708;2024-01-15T08:01:48;94297.06;;;0.01;100.00
1832;BME280;1680;48.106;11.708;2024-01-15T08:04:15;94291.53;;;0.04;100.00
1832;BME280;1680;48.106;11.708;2024-01-15T08:06:42;94281.44;;;0.09;100.00
1832;BME280;1680;48.106;11.708;2024-01-15T08:09:12;94257.88;;;0.12;100.00
1832;BME280;1680;48.106;11.708;2024-01-15T08:11:39;94261.63;;;0.10;100.00
1832;BME280;1680;48.106;11.708;2024-01-15T08:14:07;94256.22;;;-0.02;100.00
1832;BME280;1680;48.106;11.708;2024-01-15T08:16:35;94253.25;;;0.01;100.00
1832;BME280;1680;48.106;11.708;2024-01-15T08:19:02;94252.06;;;0.04;100.00
1832;BME280;1680;48.106;11.708;2024-01-15T08:21:29;94253.06;;;0.03;100.00
1832;BME280;1680;48.106;11.708;2024-01-15T08:23:57;94255.84;;;0.01;100.00
1832;BME280;1680;48.106;11.708;2024-01-15T08:26:26;94262.47;;;0.23;100.00
1832;BME280;1680;48.106;11.708;2024-01-15T08:28:53;94260.28;;;0.14;100.00
1832;BME280;1680;48.106;11.708;2024-01-15T08:31:20;94250.72;;;0.08;100.00
1832;BME280;1680;48.106;11.708;2024-01-15T08:33:47;94256.25;;;0.05;100.00
1832;BME280;1680;48.106;11.708;2024-01-15T08:36:14;94249.00;;;0.15;100.00
1832;BME280;1680;48.106;11.708;2024-01-15T08:38:42;94247.81;;;0.17;100.00
1832;BME280;1680;48.106;11.708;2024-01-15T08:41:09;94260.69;;;0.17;100.00
1832;BME280;1680;48.106;11.708;2024-01-15T08:43:37;94270.63;;;0.20;100.00
1832;BME280;1680;48.106;11.708;2024-01-15T08:46:05;94262.28;;;0.18;100.00
1832;BME280;1680;48.106;11.708;2024-01-15T08:48:32;94267.06;;;0.21;100.00
1832;BME280;1680;48.106;11.708;2024-01-15T08:50:59;94255.28;;;0.12;100.00
1832;BME280;1680;48.106;11.708;2024-01-15T08:53:26;94238.09;;;0.19;100.00
1832;BME280;1680;48.106;11.708;2024-01-15T08:55:53;94278.34;;;0.20;100.00
1832;BME280;1680;48.106;11.708;2024-01-15T08:58:20;94276.94;;;0.18;100.00
1832;BME280;1680;48.106;11.708;2024-01-15T09:00:50;94261.44;;;0.11;100.00
1832;BME280;1680;48.106;11.708;2024-01-15T09:03:17;94264.75;;;0.39;100.00
1832;BME280;1680;48.106;11.708;2024-01-15T09:05:44;94260.50;;;0.25;100.00
1832;BME280;1680;48.106;11.708;2024-01-15T09:08:11;94261.94;;;0.28;100.00
1832;BME280;1680;48.106;11.708;2024-01-15T09:10:39;94261.94;;;0.28;100.00
1832;BME280;1680;48.106;11.708;2024-01-15T09:13:06;94267.13;;;0.34;100.00
1832;BME280;1680;48.106;11.708;2024-01-15T09:15:33;94267.53;;;0.44;100.00
1832;BME280;1680;48.106;11.708;2024-01-15T09:18:01;94269.34;;;0.44;100.00
1832;BME280;1680;48.106;11.708;2024-01-15T09:20:30;94272.34;;;0.54;100.00
1832;BME280;1680;48.106;11.708;2024-01-15T09:22:57;94267.94;;;0.41;100.00
1832;BME280;1680;48.106;11.708;2024-01-15T09:25:24;94269.97;;;0.52;100.00
1832;BME280;1680;48.106;11.708;2024-01-15T09:27:51;94273.34;;;0.53;100.00
1832;BME280;1680;48.106;11.708;2024-01-15T09:30:18;94279.28;;;0.53;100.00
1832;BME280;1680;48.106;11.708;2024-01-15T09:32:45;94271.38;;;0.55;100.00
1832;BME280;1680;48.106;11.708;2024-01-15T09:35:16;94279.69;;;0.50;100.00
1832;BME280;1680;48.106;11.708;2024-01-15T09:37:43;94281.75;;;0.74;100.00
1832;BME280;1680;48.106;11.708;2024-01-15T09:40:12;94279.50;;;0.58;100.00
1832;BME280;1680;48.106;11.708;2024-01-15T09:42:42;94283.09;;;0.64;100.00
1832;BME280;1680;48.106;11.708;2024-01-15T09:45:09;94295.03;;;0.71;100.00
1832;BME280;1680;48.106;11.708;2024-01-15T09:47:36;94273.84;;;0.82;100.00
1832;BME280;1680;48.106;11.708;2024-01-15T09:50:05;94276.81;;;0.79;100.00
1832;BME280;1680;48.106;11.708;2024-01-15T09:52:34;94266.69;;;0.84;100.00
1832;BME280;1680;48.106;11.708;2024-01-15T09:55:01;94245.41;;;0.69;100.00
1832;BME280;1680;48.106;11.708;2024-01-15T09:57:28;94274.50;;;0.97;100.00
1832;BME280;1680;48.106;11.708;2024-01-15T09:59:57;94242.66;;;0.71;100.00
1832;BME280;1680;48.106;11.708;2024-01-15T10:02:26;94266.94;;;1.02;100.00
1832;BME280;1680;48.106;11.708;2024-01-15T10:04:53;94263.75;;;1.00;100.00
1832;BME280;1680;48.106;11.708;2024-01-15T10:07:21;94260.63;;;1.04;100.00
1832;BME280;1680;48.106;11.708;2024-01-15T10:09:51;94239.94;;;0.98;100.00
1832;BME280;1680;48.106;11.708;2024-01-15T10:12:19;94255.66;;;1.16;100.00
1832;BME280;1680;48.106;11.708;2024-01-15T10:14:47;94253.28;;;1.21;100.00
1832;BME280;1680;48.106;11.708;2024-01-15T10:17:15;94253.28;;;1.34;100.00
1832;BME280;1680;48.106;11.708;2024-01-15T10:19:42;94243.56;;;1.36;100.00
1832;BME280;1680;48.106;11.708;2024-01-15T10:22:10;94246.34;;;1.54;100.00
1832;BME280;1680;48.106;11.708;2024-01-15T10:24:37;94245.16;;;1.30;100.00
1832;BME280;1680;48.106;11.708;2024-01-15T10:27:09;94237.41;;;1.37;100.00
1832;BME280;1680;48.106;11.708;2024-01-15T10:29:36;94214.34;;;1.29;100.00
1832;BME280;1680;48.106;11.708;2024-01-15T10:32:06;94223.69;;;1.43;100.00
1832;BME280;1680;48.106;11.708;2024-01-15T10:34:37;94223.72;;;1.56;100.00
1832;BME280;1680;48.106;11.708;2024-01-15T10:37:07;94220.53;;;1.54;100.00
1832;BME280;1680;48.106;11.708;2024-01-15T10:39:34;94199.66;;;1.36;100.00
1832;BME280;1680;48.106;11.708;2024-01-15T10:42:02;94216.75;;;1.43;100.00
1832;BME280;1680;48.106;11.708;2024-01-15T10:44:31;94209.78;;;1.31;100.00
1832;BME280;1680;48.106;11.708;2024-01-15T10:46:58;94212.56;;;1.49;100.00
1832;BME280;1680;48.106;11.708;2024-01-15T10:49:26;94213.16;;;1.51;100.00
1832;BME280;1680;48.106;11.708;2024-01-15T10:51:55;94190.31;;;1.41;100.00
1832;BME280;1680;48.106;11.708;2024-01-15T10:54:23;94211.19;;;1.53;100.00
1832;BME280;1680;48.106;11.708;2024-01-15T10:56:50;94221.28;;;1.61;100.00
1832;BME280;1680;48.106;11.708;2024-01-15T10:59:20;94215.34;;;1.73;100.00
1832;BME280;1680;48.106;11.708;2024-01-15T11:01:50;94213.16;;;1.57;100.00
1832;BME280;1680;48.106;11.708;2024-01-15T11:04:19;94207.38;;;1.68;100.00
1832;BME280;1680;48.106;11.708;2024-01-15T11:06:50;94210.59;;;1.57;100.00
1832;BME280;1680;48.106;11.708;2024-01-15T11:09:17;94193.88;;;1.60;100.00
1832;BME280;1680;48.106;11.708;2024-01-15T11:11:45;94196.69;;;1.52;100.00
1832;BME280;1680;48.106;11.708;2024-01-15T11:14:34;94198.66;;;1.56;100.00
1832;BME280;1680;48.106;11.708;2024-01-15T11:17:03;94194.69;;;1.54;100.00
1832;BME280;1680;48.106;11.708;2024-01-15T11:19:37;94186.34;;;1.52;100.00
1832;BME280;1680;48.106;11.708;2024-01-15T11:22:07;94130.38;;;1.13;100.00
1832;BME280;1680;48.106;11.708;2024-01-15T11:24:35;94175.63;;;1.61;100.00
1832;BME280;1680;48.106;11.708;2024-01-15T11:27:03;94179.56;;;1.64;100.00
1832;BME280;1680;48.106;11.708;2024-01-15T11:29:32;94170.84;;;1.65;100.00
1832;BME280;1680;48.106;11.708;2024-01-15T11:32:05;94185.09;;;1.74;100.00
1832;BME280;1680;48.106;11.708;2024-01-15T11:34:55;94164.28;;;1.69;100.00
1832;BME280;1680;48.106;11.708;2024-01-15T11:37:28;94154.13;;;1.61;100.00
1832;BME280;1680;48.106;11.708;2024-01-15T11:40:00;94173.78;;;1.75;100.00
1832;BME280;1680;48.106;11.708;2024-01-15T11:42:29;94148.78;;;1.69;100.00
1832;BME280;1680;48.106;11.708;2024-01-15T11:44:56;94154.91;;;1.74;100.00
1832;BME280;1680;48.106;11.708;2024-01-15T11:48:05;94174.56;;;1.82;100.00
1832;BME280;1680;48.106;11.708;2024-01-15T11:50:39;94170.81;;;1.78;100.00
1832;BME280;1680;48.106;11.708;2024-01-15T11:53:13;94165.69;;;1.58;100.00
1832;BME280;1680;48.106;11.708;2024-01-15T11:55:44;94165.88;;;1.44;100.00
1832;BME280;1680;48.106;11.708;2024-01-15T11:58:12;94160.94;;;1.42;100.00
1832;BME280;1680;48.106;11.708;2024-01-15T12:00:40;94163.91;;;1.20;100.00
1832;BME280;1680;48.106;11.708;2024-01-15T12:03:10;94158.56;;;1.08;100.00
1832;BME280;1680;48.106;11.708;2024-01-15T12:05:37;94131.38;;;0.80;100.00
1832;BME280;1680;48.106;11.708;2024-01-15T12:08:04;94153.81;;;1.18;100.00
1832;BME280;1680;48.106;11.708;2024-01-15T12:10:36;94148.63;;;1.05;100.00
1832;BME280;1680;48.106;11.708;2024-01-15T12:13:05;94141.88;;;1.37;100.00
1832;BME280;1680;48.106;11.708;2024-01-15T12:15:33;94127.56;;;1.21;100.00
1832;BME280;1680;48.106;11.708;2024-01-15T12:18:01;94123.22;;;1.15;100.00
1832;BME280;1680;48.106;11.708;2024-01-15T12:20:30;94138.50;;;1.30;100.00
1832;BME280;1680;48.106;11.708;2024-01-15T12:22:59;94135.72;;;1.25;100.00
1832;BME280;1680;48.106;11.708;2024-01-15T12:25:26;94132.53;;;1.42;100.00
1832;BME280;1680;48.106;11.708;2024-01-15T12:27:54;94090.66;;;1.14;100.00
1832;BME280;1680;48.106;11.708;2024-01-15T12:30:22;94097.19;;;1.17;100.00
1832;BME280;1680;48.106;11.708;2024-01-15T12:32:50;94117.84;;;1.30;100.00
1832;BME280;1680;48.106;11.708;2024-01-15T12:35:17;94089.06;;;1.13;100.00
1832;BME280;1680;48.106;11.708;2024-01-15T12:37:45;94110.72;;;1.19;100.00
1832;BME280;1680;48.106;11.708;2024-01-15T12:40:19;94087.69;;;0.98;100.00
1832;BME280;1680;48.106;11.708;2024-01-15T12:42:46;94075.59;;;1.05;100.00
1832;BME280;1680;48.106;11.708;2024-01-15T12:45:13;94077.78;;;1.01;100.00
1832;BME280;1680;48.106;11.708;2024-01-15T12:47:41;94081.34;;;0.94;100.00
1832;BME280;1680;48.106;11.708;2024-01-15T12:50:09;94088.25;;;1.13;100.00
1832;BME280;1680;48.106;11.708;2024-01-15T12:52:37;94081.53;;;1.12;100.00
1832;BME280;1680;48.106;11.708;2024-01-15T12:55:06;94092.84;;;0.98;100.00
1832;BME280;1680;48.106;11.708;2024-01-15T12:57:34;94087.88;;;1.09;100.00
1832;BME280;1680;48.106;11.708;2024-01-15T13:00:02;94084.69;;;1.07;100.00
1832;BME280;1680;48.106;11.708;2024-01-15T13:02:32;94081.53;;;1.12;100.00
1832;BME280;1680;48.106;11.708;2024-01-15T13:04:59;94081.50;;;1.38;100.00
1832;BME280;1680;48.106;11.708;2024-01-15T13:07:27;94077.28;;;1.50;100.00
1832;BME280;1680;48.106;11.708;2024-01-15T13:09:54;94077.03;;;1.58;100.00
1832;BME280;1680;48.106;11.708;2024-01-15T13:12:23;94068.91;;;2.73;100.00